createdAt,value
2023-04-28T00:02:08.185Z,100079.69
2023-04-28T00:04:36.364Z,100087.22
2023-04-28T00:07:06.090Z,100090.91
2023-04-28T00:09:34.043Z,100098.81
2023-04-28T00:12:02.748Z,100093.63
2023-04-28T00:14:30.686Z,100104.00
2023-04-28T00:16:59.367Z,100105.38
2023-04-28T00:19:27.309Z,100115.75
2023-04-28T00:21:55.264Z,100116.28
2023-04-28T00:24:24.598Z,100115.44
2023-04-28T00:26:52.578Z,100123.84
2023-04-28T00:29:20.530Z,100120.97
2023-04-28T00:31:48.536Z,100122.50
2023-04-28T00:34:16.812Z,100126.19
2023-04-28T00:36:45.082Z,100125.19
2023-04-28T00:39:13.063Z,100132.91
2023-04-28T00:41:42.375Z,100129.38
2023-04-28T00:44:10.316Z,100133.91
2023-04-28T00:46:38.249Z,100137.59
2023-04-28T00:49:06.281Z,100138.44
2023-04-28T00:51:34.752Z,100141.66
2023-04-28T00:54:02.660Z,100137.13
2023-04-28T00:56:31.268Z,100132.38
2023-04-28T00:59:00.660Z,100137.28
2023-04-28T01:01:28.610Z,100135.44
2023-04-28T01:03:56.759Z,100136.59
2023-04-28T01:06:24.823Z,100135.75
2023-04-28T01:08:53.428Z,100143.44
2023-04-28T01:11:21.371Z,100134.56
2023-04-28T01:13:49.287Z,100143.97
2023-04-28T01:16:18.663Z,100148.66
2023-04-28T01:18:48.292Z,100155.38
2023-04-28T01:21:16.215Z,100156.69
2023-04-28T01:23:48.205Z,100165.44
2023-04-28T01:26:16.145Z,100156.34
2023-04-28T01:28:44.131Z,100151.66
2023-04-28T01:31:12.071Z,100164.44
2023-04-28T01:33:40.069Z,100161.75
2023-04-28T01:36:08.643Z,100158.38
2023-04-28T01:38:36.556Z,100156.03
2023-04-28T01:41:06.086Z,100160.75
2023-04-28T01:43:34.010Z,100160.75
2023-04-28T01:46:01.959Z,100159.72
2023-04-28T01:48:29.935Z,100166.44
2023-04-28T01:50:57.915Z,100163.75
2023-04-28T01:53:26.103Z,100174.16
2023-04-28T01:55:54.658Z,100166.59
2023-04-28T01:58:23.989Z,100171.50
2023-04-28T02:00:51.944Z,100171.50
2023-04-28T02:03:19.974Z,100174.66
2023-04-28T02:05:48.020Z,100173.50
2023-04-28T02:08:16.006Z,100172.34
2023-04-28T02:10:44.118Z,100191.28
2023-04-28T02:13:12.225Z,100180.56
2023-04-28T02:15:42.604Z,100183.88
2023-04-28T02:18:10.653Z,100182.19
2023-04-28T02:20:38.617Z,100184.22
2023-04-28T02:23:06.571Z,100187.53
2023-04-28T02:25:34.510Z,100184.22
2023-04-28T02:28:03.034Z,100181.84
2023-04-28T02:30:31.063Z,100187.91
2023-04-28T02:33:00.395Z,100190.59
2023-04-28T02:35:28.392Z,100196.44
2023-04-28T02:37:56.347Z,100199.13
2023-04-28T02:40:24.285Z,100187.53
2023-04-28T02:42:52.238Z,100197.63
2023-04-28T02:45:20.321Z,100187.88
2023-04-28T02:47:48.347Z,100191.03
2023-04-28T02:50:17.680Z,100194.88
2023-04-28T02:52:47.031Z,100199.41
2023-04-28T02:55:23.812Z,100201.75
2023-04-28T02:57:51.946Z,100202.25
2023-04-28T03:00:20.556Z,100168.28
2023-04-28T03:02:48.678Z,100201.91
2023-04-28T03:05:18.215Z,100205.56
2023-04-28T03:07:46.156Z,100203.84
2023-04-28T03:10:14.109Z,100216.28
2023-04-28T03:12:42.071Z,100222.00
2023-04-28T03:15:12.107Z,100221.00
2023-04-28T03:17:42.377Z,100226.69
2023-04-28T03:20:11.214Z,100229.00
2023-04-28T03:22:40.493Z,100227.16
2023-04-28T03:25:08.952Z,100231.84
2023-04-28T03:27:36.939Z,100239.38
2023-04-28T03:30:05.451Z,100245.44
2023-04-28T03:32:33.444Z,100246.78
2023-04-28T03:35:01.426Z,100255.22
2023-04-28T03:37:29.460Z,100254.38
2023-04-28T03:39:58.748Z,100258.56
2023-04-28T03:42:26.708Z,100254.03
2023-04-28T03:44:54.656Z,100260.25
2023-04-28T03:47:22.612Z,100270.28
2023-04-28T03:49:50.601Z,100255.22
2023-04-28T03:52:18.555Z,100275.31
2023-04-28T03:54:46.550Z,100270.97
2023-04-28T03:57:15.887Z,100278.56
2023-04-28T03:59:43.929Z,100281.75
2023-04-28T04:02:11.920Z,100279.59
2023-04-28T04:04:39.984Z,100277.75
2023-04-28T04:07:08.039Z,100287.84
2023-04-28T04:09:36.056Z,100280.50
2023-04-28T04:12:04.054Z,100285.91
2023-04-28T04:14:33.458Z,100285.59
2023-04-28T04:17:01.436Z,100293.09
2023-04-28T04:19:29.368Z,100294.63
2023-04-28T04:21:57.361Z,100281.56
2023-04-28T04:24:25.424Z,100284.91
2023-04-28T04:26:53.414Z,100288.28
2023-04-28T04:29:21.353Z,100288.97
2023-04-28T04:31:50.664Z,100291.31
2023-04-28T04:34:18.739Z,100287.59
2023-04-28T04:36:46.804Z,100290.00
2023-04-28T04:39:14.728Z,100286.31
2023-04-28T04:41:42.854Z,100290.03
2023-04-28T04:44:11.804Z,100285.03
2023-04-28T04:46:41.117Z,100279.50
2023-04-28T04:49:10.420Z,100290.47
2023-04-28T04:51:38.365Z,100296.19
2023-04-28T04:54:06.612Z,100296.84
2023-04-28T04:56:34.884Z,100294.47
2023-04-28T04:59:02.854Z,100294.34
2023-04-28T05:01:30.833Z,100302.22
2023-04-28T05:03:59.145Z,100298.88
2023-04-28T05:06:28.652Z,100300.81
2023-04-28T05:08:59.305Z,100301.13
2023-04-28T05:11:27.201Z,100297.44
2023-04-28T05:13:55.167Z,100300.81
2023-04-28T05:16:23.195Z,100312.91
2023-04-28T05:18:51.451Z,100312.59
2023-04-28T05:21:19.391Z,100316.69
2023-04-28T05:23:48.710Z,100322.78
2023-04-28T05:26:16.788Z,100310.34
2023-04-28T05:28:44.729Z,100312.34
2023-04-28T05:31:12.638Z,100311.25
2023-04-28T05:33:40.592Z,100313.22
2023-04-28T05:36:09.200Z,100316.31
2023-04-28T05:38:37.153Z,100315.84
2023-04-28T05:41:06.492Z,100320.38
2023-04-28T05:43:34.460Z,100319.16
2023-04-28T05:46:02.424Z,100322.88
2023-04-28T05:48:30.809Z,100325.81
2023-04-28T05:50:58.748Z,100330.19
2023-04-28T05:53:26.868Z,100328.94
2023-04-28T05:55:54.834Z,100338.09
2023-04-28T05:58:24.242Z,100332.78
2023-04-28T06:00:52.212Z,100335.88
2023-04-28T06:03:20.332Z,100339.09
2023-04-28T06:05:48.536Z,100334.56
2023-04-28T06:08:16.511Z,100330.84
2023-04-28T06:10:44.437Z,100339.06
2023-04-28T06:13:13.938Z,100334.75
2023-04-28T06:15:43.966Z,100343.50
2023-04-28T06:18:12.004Z,100341.28
2023-04-28T06:20:39.968Z,100347.31
2023-04-28T06:23:09.086Z,100343.91
2023-04-28T06:25:37.394Z,100336.47
2023-04-28T06:28:06.411Z,100346.81
2023-04-28T06:30:34.359Z,100347.00
2023-04-28T06:33:03.752Z,100346.69
2023-04-28T06:35:31.712Z,100358.81
2023-04-28T06:37:59.696Z,100353.53
2023-04-28T06:40:27.678Z,100347.22
2023-04-28T06:42:55.626Z,100349.78
2023-04-28T06:45:23.604Z,100349.19
2023-04-28T06:47:52.509Z,100344.94
2023-04-28T06:50:22.135Z,100349.44
2023-04-28T06:52:50.109Z,100343.56
2023-04-28T06:55:18.156Z,100349.19
2023-04-28T06:57:46.156Z,100347.00
2023-04-28T07:00:15.456Z,100341.13
2023-04-28T07:02:43.580Z,100346.28
2023-04-28T07:05:12.651Z,100342.28
2023-04-28T07:07:43.483Z,100336.88
2023-04-28T07:10:11.817Z,100345.31
2023-04-28T07:12:39.730Z,100344.81
2023-04-28T07:15:10.087Z,100351.22
2023-04-28T07:17:38.449Z,100340.78
2023-04-28T07:20:07.920Z,100342.03
2023-04-28T07:22:35.869Z,100345.66
2023-04-28T07:25:06.456Z,100336.66
2023-04-28T07:27:34.373Z,100343.81
2023-04-28T07:30:11.604Z,100335.38
2023-04-28T07:32:46.976Z,100341.81
2023-04-28T07:35:14.984Z,100335.59
2023-04-28T07:37:43.001Z,100340.44
2023-04-28T07:40:12.911Z,100332.03
2023-04-28T07:42:41.149Z,100338.19
2023-04-28T07:45:10.090Z,100336.38
2023-04-28T07:47:38.055Z,100329.25
2023-04-28T07:50:07.063Z,100331.25
2023-04-28T07:52:35.032Z,100329.50
2023-04-28T07:55:04.262Z,100334.72
2023-04-28T07:57:33.588Z,100330.16
2023-04-28T08:00:01.532Z,100328.97
2023-04-28T08:02:29.602Z,100333.13
2023-04-28T08:04:57.789Z,100331.03
2023-04-28T08:07:26.255Z,100323.91
2023-04-28T08:09:55.316Z,100332.31
2023-04-28T08:12:23.284Z,100338.16
2023-04-28T08:14:52.621Z,100332.50
2023-04-28T08:17:20.530Z,100325.41
2023-04-28T08:19:48.909Z,100322.22
2023-04-28T08:22:16.889Z,100321.41
2023-04-28T08:24:44.850Z,100316.38
2023-04-28T08:27:12.820Z,100312.66
2023-04-28T08:29:41.324Z,100314.72
2023-04-28T08:32:10.690Z,100305.34
2023-04-28T08:34:38.673Z,100303.88
2023-04-28T08:37:07.419Z,100303.41
2023-04-28T08:39:35.634Z,100304.22
2023-04-28T08:42:05.664Z,100295.63
2023-04-28T08:44:38.254Z,100301.69
2023-04-28T08:47:06.254Z,100302.25
2023-04-28T08:49:36.329Z,100306.19
2023-04-28T08:52:04.405Z,100305.19
2023-04-28T08:54:33.020Z,100296.25
2023-04-28T08:57:01.345Z,100296.13
2023-04-28T08:59:29.415Z,100288.63
2023-04-28T09:01:59.540Z,100284.25
2023-04-28T09:04:27.949Z,100291.06
2023-04-28T09:06:57.457Z,100292.69
2023-04-28T09:09:26.348Z,100287.03
2023-04-28T09:11:55.651Z,100291.66
2023-04-28T09:14:23.963Z,100286.25
2023-04-28T09:16:52.052Z,100289.47
2023-04-28T09:19:20.197Z,100277.72
2023-04-28T09:21:52.167Z,100284.09
2023-04-28T09:24:34.516Z,100276.81
2023-04-28T09:27:03.488Z,100267.97
2023-04-28T09:29:31.548Z,100275.13
2023-04-28T09:32:14.164Z,100278.31
2023-04-28T09:34:46.533Z,100271.59
2023-04-28T09:37:17.980Z,100272.81
2023-04-28T09:39:47.835Z,100260.44
2023-04-28T09:42:34.649Z,100272.06
2023-04-28T09:45:03.427Z,100264.00
2023-04-28T09:47:32.552Z,100266.59
2023-04-28T09:50:01.227Z,100258.97
2023-04-28T09:52:29.160Z,100254.88
2023-04-28T09:54:58.533Z,100251.47
2023-04-28T09:57:26.559Z,100241.63
2023-04-28T09:59:55.082Z,100251.00
2023-04-28T10:02:42.856Z,100248.06
2023-04-28T10:05:11.736Z,100238.97
2023-04-28T10:07:40.220Z,100242.28
2023-04-28T10:10:10.302Z,100239.72
2023-04-28T10:12:39.176Z,100237.34
2023-04-28T10:15:08.593Z,100241.84
2023-04-28T10:17:36.793Z,100251.00
2023-04-28T10:20:05.549Z,100242.09
2023-04-28T10:22:40.629Z,100244.38
2023-04-28T10:25:26.922Z,100244.72
2023-04-28T10:27:54.840Z,100246.31
2023-04-28T10:30:27.968Z,100237.31
2023-04-28T10:33:24.636Z,100235.69
2023-04-28T10:35:52.759Z,100231.19
2023-04-28T10:38:21.832Z,100230.88
2023-04-28T10:40:51.348Z,100219.13
2023-04-28T10:43:34.870Z,100232.44
2023-04-28T10:46:05.036Z,100220.50
2023-04-28T10:48:54.241Z,100221.97
2023-04-28T10:51:27.393Z,100222.78
2023-04-28T10:54:17.881Z,100210.41
2023-04-28T10:57:21.432Z,100214.88
2023-04-28T10:59:50.477Z,100205.94
2023-04-28T11:02:38.150Z,100212.97
2023-04-28T11:05:19.008Z,100204.19
2023-04-28T11:08:23.896Z,100205.59
2023-04-28T11:11:13.891Z,100204.88
2023-04-28T11:13:43.327Z,100207.03
2023-04-28T11:16:11.365Z,100200.34
2023-04-28T11:18:59.473Z,100182.34
2023-04-28T11:21:28.332Z,100210.41
2023-04-28T11:23:56.459Z,100212.00
2023-04-28T11:26:24.772Z,100202.94
2023-04-28T11:28:54.673Z,100212.19
2023-04-28T11:31:24.197Z,100201.63
2023-04-28T11:33:57.798Z,100198.81
2023-04-28T11:36:26.905Z,100197.28
2023-04-28T11:38:56.156Z,100194.75
2023-04-28T11:41:24.357Z,100202.78
2023-04-28T11:43:52.512Z,100195.34
2023-04-28T11:46:23.096Z,100191.69
2023-04-28T11:48:56.476Z,100202.75
2023-04-28T11:51:38.163Z,100196.31
2023-04-28T11:54:07.326Z,100185.66
2023-04-28T11:56:38.797Z,100178.03
2023-04-28T11:59:08.852Z,100174.88
2023-04-28T12:01:46.739Z,100180.06
2023-04-28T12:04:14.809Z,100169.47
2023-04-28T12:06:42.859Z,100165.94
2023-04-28T12:09:17.990Z,100166.91
2023-04-28T12:11:57.500Z,100159.28
2023-04-28T12:14:25.692Z,100157.53
2023-04-28T12:16:55.021Z,100160.53
2023-04-28T12:19:22.932Z,100155.97
2023-04-28T12:22:01.001Z,100148.19
2023-04-28T12:24:28.975Z,100150.63
2023-04-28T12:26:56.951Z,100146.63
2023-04-28T12:29:38.584Z,100147.03
2023-04-28T12:32:08.663Z,100137.38
2023-04-28T12:34:36.943Z,100132.91
2023-04-28T12:37:05.788Z,100129.38
2023-04-28T12:39:34.653Z,100127.13
2023-04-28T12:42:04.105Z,100129.66
2023-04-28T12:44:36.668Z,100122.69
2023-04-28T12:47:05.546Z,100125.00
2023-04-28T12:49:35.184Z,100120.53
2023-04-28T12:52:03.300Z,100119.66
2023-04-28T12:54:31.375Z,100117.50
2023-04-28T12:56:59.441Z,100113.47
2023-04-28T12:59:27.417Z,100106.22
2023-04-28T13:01:55.590Z,100109.06
2023-04-28T13:04:23.776Z,100108.84
2023-04-28T13:06:54.421Z,100098.91
2023-04-28T13:09:22.374Z,100100.72
2023-04-28T13:11:50.299Z,100098.69
2023-04-28T13:14:18.228Z,100099.94
2023-04-28T13:16:47.059Z,100101.00
2023-04-28T13:19:15.020Z,100093.13
2023-04-28T13:21:43.052Z,100094.97
2023-04-28T13:24:13.520Z,100092.34
2023-04-28T13:26:41.515Z,100092.47
2023-04-28T13:29:09.499Z,100089.03
2023-04-28T13:31:37.455Z,100087.59
2023-04-28T13:34:06.264Z,100087.50
2023-04-28T13:36:34.291Z,100077.25
2023-04-28T13:39:02.567Z,100080.25
2023-04-28T13:41:32.112Z,100086.94
2023-04-28T13:44:00.020Z,100084.06
2023-04-28T13:46:28.176Z,100082.16
2023-04-28T13:48:56.177Z,100080.78
2023-04-28T13:51:24.212Z,100081.69
2023-04-28T13:53:52.257Z,100080.13
2023-04-28T13:56:20.205Z,100079.03
2023-04-28T13:58:49.492Z,100068.53
2023-04-28T14:01:17.531Z,100077.69
2023-04-28T14:03:45.783Z,100066.63
2023-04-28T14:06:14.255Z,100072.03
2023-04-28T14:08:42.175Z,100073.31
2023-04-28T14:11:10.487Z,100070.72
2023-04-28T14:13:38.463Z,100071.94
2023-04-28T14:16:08.856Z,100067.63
2023-04-28T14:18:36.949Z,100065.28
2023-04-28T14:21:08.122Z,100071.63
2023-04-28T14:23:36.748Z,100070.13
2023-04-28T14:26:04.939Z,100066.63
2023-04-28T14:28:32.905Z,100060.06
2023-04-28T14:31:06.205Z,100063.69
2023-04-28T14:33:35.545Z,100064.66
2023-04-28T14:36:03.477Z,100068.84
2023-04-28T14:38:31.500Z,100065.75
2023-04-28T14:40:59.482Z,100061.91
2023-04-28T14:43:27.580Z,100059.75
2023-04-28T14:45:55.563Z,100056.59
2023-04-28T14:48:23.728Z,100055.66
2023-04-28T14:50:53.092Z,100057.03
2023-04-28T14:53:21.232Z,100054.84
2023-04-28T14:55:49.469Z,100047.06
2023-04-28T14:58:17.429Z,100054.31
2023-04-28T15:00:45.393Z,100059.06
2023-04-28T15:03:13.542Z,100059.06
2023-04-28T15:05:41.712Z,100053.84
2023-04-28T15:08:11.742Z,100048.63
2023-04-28T15:10:40.447Z,100053.25
2023-04-28T15:13:08.496Z,100053.66
2023-04-28T15:15:36.477Z,100053.69
2023-04-28T15:18:04.607Z,100056.78
2023-04-28T15:20:33.319Z,100051.75
2023-04-28T15:23:01.541Z,100050.94
2023-04-28T15:25:30.885Z,100055.13
2023-04-28T15:27:59.122Z,100054.50
2023-04-28T15:30:28.041Z,100050.75
2023-04-28T15:32:55.969Z,100046.38
2023-04-28T15:35:23.904Z,100043.66
2023-04-28T15:37:52.084Z,100028.00
2023-04-28T15:40:21.370Z,100040.31
2023-04-28T15:42:52.680Z,100034.06
2023-04-28T15:45:21.313Z,100035.50
2023-04-28T15:47:50.358Z,100028.97
2023-04-28T15:50:19.740Z,100032.28
2023-04-28T15:52:48.514Z,100030.09
2023-04-28T15:55:17.028Z,100027.00
2023-04-28T15:57:45.063Z,100027.56
2023-04-28T16:00:15.754Z,100026.72
2023-04-28T16:02:43.973Z,100029.63
2023-04-28T16:05:12.261Z,100028.38
2023-04-28T16:07:41.098Z,100026.25
2023-04-28T16:10:10.921Z,100014.56
2023-04-28T16:12:39.313Z,100017.19
2023-04-28T16:15:09.489Z,100015.66
2023-04-28T16:17:39.311Z,100014.28
2023-04-28T16:20:08.920Z,100016.72
2023-04-28T16:22:36.871Z,100021.22
2023-04-28T16:25:05.153Z,100015.97
2023-04-28T16:27:33.344Z,100021.50
2023-04-28T16:30:01.330Z,100026.69
2023-04-28T16:32:29.335Z,100022.41
2023-04-28T16:34:59.084Z,100023.00
2023-04-28T16:37:27.257Z,100023.66
2023-04-28T16:39:55.184Z,100023.81
2023-04-28T16:42:23.346Z,100028.16
2023-04-28T16:44:53.013Z,100023.91
2023-04-28T16:47:21.363Z,100025.97
2023-04-28T16:49:49.436Z,100032.97
2023-04-28T16:52:18.940Z,100023.41
2023-04-28T16:54:46.919Z,100032.91
2023-04-28T16:57:14.875Z,100028.72
2023-04-28T16:59:43.000Z,100031.19
2023-04-28T17:02:11.133Z,100026.94
2023-04-28T17:04:39.283Z,100028.47
2023-04-28T17:07:07.460Z,100028.34
2023-04-28T17:09:36.929Z,100028.16
2023-04-28T17:12:05.040Z,100025.69
2023-04-28T17:14:32.956Z,100034.91
2023-04-28T17:17:01.117Z,100038.28
2023-04-28T17:19:29.093Z,100044.72
2023-04-28T17:21:57.072Z,100044.88
2023-04-28T17:24:25.015Z,100038.28
2023-04-28T17:26:54.882Z,100040.09
2023-04-28T17:29:23.276Z,100052.72
2023-04-28T17:31:51.271Z,100055.19
2023-04-28T17:34:20.036Z,100053.44
2023-04-28T17:36:48.032Z,100053.41
2023-04-28T17:39:16.736Z,100047.09
2023-04-28T17:41:45.180Z,100059.66
2023-04-28T17:44:14.697Z,100049.28
2023-04-28T17:46:42.737Z,100055.41
2023-04-28T17:49:11.062Z,100056.81
2023-04-28T17:51:39.018Z,100064.59
2023-04-28T17:54:09.604Z,100073.03
2023-04-28T17:56:38.675Z,100076.63
2023-04-28T17:59:08.320Z,100072.63
2023-04-28T18:01:37.772Z,100073.81
2023-04-28T18:04:05.952Z,100077.69
2023-04-28T18:06:33.893Z,100080.53
2023-04-28T18:09:01.874Z,100079.88
2023-04-28T18:11:29.873Z,100077.16
2023-04-28T18:13:58.901Z,100080.69
2023-04-28T18:16:27.064Z,100080.84
2023-04-28T18:18:56.424Z,100086.22
2023-04-28T18:21:24.384Z,100082.53
2023-04-28T18:23:52.303Z,100085.22
2023-04-28T18:26:22.205Z,100088.72
2023-04-28T18:28:50.142Z,100087.19
2023-04-28T18:31:18.121Z,100079.13
2023-04-28T18:33:46.078Z,100079.75
2023-04-28T18:36:15.348Z,100084.09
2023-04-28T18:38:43.322Z,100089.28
2023-04-28T18:41:14.807Z,100080.88
2023-04-28T18:43:43.506Z,100089.88
2023-04-28T18:46:11.550Z,100086.69
2023-04-28T18:48:40.110Z,100101.41
2023-04-28T18:51:08.127Z,100100.03
2023-04-28T18:53:38.191Z,100099.69
2023-04-28T18:56:06.226Z,100097.31
2023-04-28T18:58:37.046Z,100101.34
2023-04-28T19:01:05.098Z,100096.59
2023-04-28T19:03:33.330Z,100098.09
2023-04-28T19:06:01.558Z,100096.56
2023-04-28T19:08:29.498Z,100097.88
2023-04-28T19:11:00.149Z,100092.00
2023-04-28T19:13:28.187Z,100096.81
2023-04-28T19:15:56.379Z,100090.91
2023-04-28T19:18:24.378Z,100095.75
2023-04-28T19:20:59.246Z,100093.56
2023-04-28T19:23:27.169Z,100086.97
2023-04-28T19:25:56.318Z,100091.34
2023-04-28T19:28:26.293Z,100092.81
2023-04-28T19:30:54.352Z,100087.91
2023-04-28T19:33:24.882Z,100081.03
2023-04-28T19:35:55.241Z,100079.53
2023-04-28T19:38:23.382Z,100085.47
2023-04-28T19:40:52.184Z,100089.16
2023-04-28T19:43:20.093Z,100083.44
2023-04-28T19:45:49.395Z,100077.03
2023-04-28T19:48:18.848Z,100086.34
2023-04-28T19:50:46.752Z,100081.31
2023-04-28T19:53:15.003Z,100082.31
2023-04-28T19:55:42.992Z,100088.66
2023-04-28T19:58:11.243Z,100090.09
2023-04-28T20:00:39.147Z,100081.94
2023-04-28T20:03:08.604Z,100088.28
2023-04-28T20:05:38.777Z,100084.59
2023-04-28T20:08:06.791Z,100085.59
2023-04-28T20:10:34.725Z,100076.88
2023-04-28T20:13:02.901Z,100080.56
2023-04-28T20:15:30.861Z,100082.56
2023-04-28T20:17:58.885Z,100080.19
2023-04-28T20:20:28.666Z,100074.13
2023-04-28T20:22:56.638Z,100074.47
2023-04-28T20:25:24.592Z,100085.47
2023-04-28T20:27:52.553Z,100076.72
2023-04-28T20:30:20.726Z,100076.03
2023-04-28T20:32:49.421Z,100063.00
2023-04-28T20:35:17.573Z,100068.34
2023-04-28T20:37:46.896Z,100072.00
2023-04-28T20:40:15.307Z,100068.63
2023-04-28T20:42:43.268Z,100075.69
2023-04-28T20:45:11.974Z,100078.06
2023-04-28T20:47:39.983Z,100077.03
2023-04-28T20:50:10.951Z,100068.00
2023-04-28T20:52:39.128Z,100073.06
2023-04-28T20:55:09.658Z,100070.53
2023-04-28T20:57:37.582Z,100073.06
2023-04-28T21:00:07.057Z,100076.72
2023-04-28T21:02:35.178Z,100069.00
2023-04-28T21:05:03.288Z,100059.31
2023-04-28T21:07:31.205Z,100060.31
2023-04-28T21:09:59.185Z,100070.03
2023-04-28T21:12:28.512Z,100071.38
2023-04-28T21:14:56.816Z,100075.13
2023-04-28T21:17:24.843Z,100067.09
2023-04-28T21:19:53.064Z,100070.47
2023-04-28T21:22:21.312Z,100067.19
2023-04-28T21:24:49.294Z,100075.22
2023-04-28T21:27:17.255Z,100066.78
2023-04-28T21:29:46.628Z,100069.88
2023-04-28T21:32:14.866Z,100064.50
2023-04-28T21:34:42.924Z,100066.16
2023-04-28T21:37:10.860Z,100065.88
2023-04-28T21:39:38.819Z,100072.38
2023-04-28T21:42:08.278Z,100065.19
2023-04-28T21:44:36.264Z,100063.13
2023-04-28T21:47:06.723Z,100058.91
2023-04-28T21:49:34.855Z,100056.72
2023-04-28T21:52:03.290Z,100060.00
2023-04-28T21:54:31.256Z,100050.59
2023-04-28T21:56:59.234Z,100058.31
2023-04-28T21:59:27.205Z,100051.66
2023-04-28T22:01:55.969Z,100053.97
2023-04-28T22:04:25.563Z,100053.56
2023-04-28T22:06:53.704Z,100045.84
2023-04-28T22:09:22.178Z,100046.47
2023-04-28T22:11:50.115Z,100045.19
2023-04-28T22:14:30.561Z,100046.41
2023-04-28T22:17:06.252Z,100051.91
2023-04-28T22:19:35.563Z,100047.16
2023-04-28T22:22:03.482Z,100041.75
2023-04-28T22:24:31.663Z,100042.03
2023-04-28T22:26:59.742Z,100030.50
2023-04-28T22:29:27.667Z,100027.38
2023-04-28T22:31:55.662Z,100026.47
2023-04-28T22:34:24.173Z,100028.66
2023-04-28T22:36:53.513Z,100024.69
2023-04-28T22:39:21.490Z,100023.53
2023-04-28T22:41:49.419Z,100022.63
2023-04-28T22:44:17.349Z,100020.84
2023-04-28T22:46:45.311Z,100019.66
2023-04-28T22:49:13.279Z,100015.06
2023-04-28T22:51:41.227Z,100016.69
2023-04-28T22:54:10.858Z,100016.75
2023-04-28T22:56:38.837Z,100009.09
2023-04-28T22:59:09.549Z,100005.03
2023-04-28T23:01:37.581Z,100004.31
2023-04-28T23:04:06.009Z,100012.53
2023-04-28T23:06:34.119Z,100008.38
2023-04-28T23:09:03.616Z,100009.56
2023-04-28T23:11:33.200Z,100004.59
2023-04-28T23:14:01.146Z,99994.94
2023-04-28T23:16:29.143Z,99995.34
2023-04-28T23:18:57.123Z,99996.38
2023-04-28T23:21:25.043Z,99998.94
2023-04-28T23:23:53.029Z,100003.91
2023-04-28T23:26:21.006Z,100005.31
2023-04-28T23:28:50.523Z,99999.44
2023-04-28T23:31:18.504Z,100011.47
2023-04-28T23:33:46.451Z,100005.59
2023-04-28T23:36:14.418Z,100007.84
2023-04-28T23:38:42.447Z,99987.81
2023-04-28T23:41:10.447Z,99996.91
2023-04-28T23:43:38.418Z,100003.09
2023-04-28T23:46:08.083Z,100006.47
2023-04-28T23:48:36.158Z,100005.66
2023-04-28T23:51:04.276Z,100006.78
2023-04-28T23:53:32.238Z,100004.50
2023-04-28T23:56:00.428Z,100009.44
2023-04-28T23:58:28.846Z,100003.41
